createdAt,value
2022-10-05T00:01:53.167Z,11.85
2022-10-05T00:04:22.957Z,20.05
2022-10-05T00:07:08.102Z,14.57
2022-10-05T00:09:35.451Z,14.65
2022-10-05T00:12:31.599Z,17.55
2022-10-05T00:15:01.226Z,12.40
2022-10-05T00:17:30.661Z,14.57
2022-10-05T00:19:57.561Z,10.85
2022-10-05T00:22:32.606Z,12.40
2022-10-05T00:25:01.399Z,18.35
2022-10-05T00:27:39.034Z,14.35
2022-10-05T00:30:15.466Z,14.65
2022-10-05T00:32:42.592Z,17.63
2022-10-05T00:35:10.320Z,19.95
2022-10-05T00:37:37.569Z,18.58
2022-10-05T00:40:37.601Z,11.23
2022-10-05T00:44:01.582Z,15.65
2022-10-05T00:47:00.333Z,15.88
2022-10-05T00:49:40.769Z,13.50
2022-10-05T00:52:35.009Z,11.50
2022-10-05T00:55:13.816Z,21.65
2022-10-05T00:58:15.075Z,17.20
2022-10-05T01:00:59.322Z,12.77
2022-10-05T01:03:38.995Z,14.65
2022-10-05T01:06:29.138Z,10.45
2022-10-05T01:09:23.543Z,12.13
2022-10-05T01:11:52.660Z,10.82
2022-10-05T01:14:39.546Z,15.30
2022-10-05T01:17:17.156Z,17.27
2022-10-05T01:20:17.550Z,13.52
2022-10-05T01:22:47.372Z,12.30
2022-10-05T01:25:14.414Z,9.85
2022-10-05T01:27:47.099Z,17.95
2022-10-05T01:30:19.724Z,10.52
2022-10-05T01:32:52.143Z,10.90
2022-10-05T01:35:21.655Z,12.32
2022-10-05T01:38:02.038Z,14.70
2022-10-05T01:40:53.559Z,12.55
2022-10-05T01:43:29.535Z,14.82
2022-10-05T01:46:11.711Z,13.07
2022-10-05T01:48:52.213Z,16.70
2022-10-05T01:51:28.285Z,12.77
2022-10-05T01:54:11.118Z,10.25
2022-10-05T01:56:53.052Z,13.10
2022-10-05T01:59:24.435Z,13.55
2022-10-05T02:01:56.948Z,15.30
2022-10-05T02:05:03.478Z,14.65
2022-10-05T02:07:55.276Z,16.25
2022-10-05T02:10:31.486Z,12.52
2022-10-05T02:13:02.798Z,14.93
2022-10-05T02:15:53.113Z,19.52
2022-10-05T02:18:29.071Z,11.75
2022-10-05T02:20:57.008Z,12.50
2022-10-05T02:23:26.118Z,16.02
2022-10-05T02:25:54.456Z,20.45
2022-10-05T02:28:33.215Z,15.88
2022-10-05T02:31:14.742Z,20.15
2022-10-05T02:33:41.741Z,13.02
2022-10-05T02:36:20.368Z,13.90
2022-10-05T02:38:56.402Z,15.30
2022-10-05T02:41:30.314Z,20.17
2022-10-05T02:44:14.225Z,15.27
2022-10-05T02:47:09.718Z,15.88
2022-10-05T02:49:49.517Z,14.50
2022-10-05T02:52:42.882Z,14.93
2022-10-05T02:55:17.681Z,19.08
2022-10-05T02:57:49.406Z,13.70
2022-10-05T03:00:25.001Z,16.92
2022-10-05T03:03:15.358Z,26.40
2022-10-05T03:06:00.669Z,14.65
2022-10-05T03:08:56.450Z,18.02
2022-10-05T03:11:32.450Z,16.75
2022-10-05T03:13:59.303Z,22.50
2022-10-05T03:16:41.136Z,20.33
2022-10-05T03:19:36.986Z,20.73
2022-10-05T03:22:16.162Z,17.05
2022-10-05T03:25:36.010Z,16.20
2022-10-05T03:28:11.078Z,16.95
2022-10-05T03:31:25.398Z,16.77
2022-10-05T03:34:08.124Z,15.68
2022-10-05T03:36:38.675Z,12.98
2022-10-05T03:39:17.450Z,11.57
2022-10-05T03:41:57.788Z,12.50
2022-10-05T03:44:47.554Z,17.58
2022-10-05T03:47:31.954Z,15.60
2022-10-05T03:50:23.879Z,11.00
2022-10-05T03:52:55.616Z,14.52
2022-10-05T03:55:41.408Z,11.57
2022-10-05T03:58:20.330Z,16.75
2022-10-05T04:00:50.509Z,14.50
2022-10-05T04:03:33.264Z,13.95
2022-10-05T04:06:11.974Z,17.40
2022-10-05T04:08:38.820Z,12.40
2022-10-05T04:11:10.459Z,13.20
2022-10-05T04:13:54.419Z,12.63
2022-10-05T04:16:27.956Z,17.95
2022-10-05T04:19:00.193Z,19.52
2022-10-05T04:21:51.912Z,19.13
2022-10-05T04:24:27.520Z,12.38
2022-10-05T04:27:06.177Z,14.90
2022-10-05T04:29:49.688Z,14.77
2022-10-05T04:32:31.353Z,13.13
2022-10-05T04:35:24.158Z,11.73
2022-10-05T04:37:58.996Z,20.88
2022-10-05T04:40:29.077Z,19.08
2022-10-05T04:43:15.420Z,22.30
2022-10-05T04:46:15.986Z,12.40
2022-10-05T04:49:01.224Z,22.23
2022-10-05T04:51:31.076Z,21.05
2022-10-05T04:54:23.063Z,20.85
2022-10-05T04:56:53.611Z,20.13
2022-10-05T04:59:23.541Z,16.23
2022-10-05T05:01:58.391Z,18.80
2022-10-05T05:04:32.299Z,19.00
2022-10-05T05:07:38.909Z,20.77
2022-10-05T05:10:35.459Z,21.95
2022-10-05T05:13:11.556Z,14.43
2022-10-05T05:16:23.465Z,21.60
2022-10-05T05:19:14.207Z,20.08
2022-10-05T05:22:05.695Z,21.52
2022-10-05T05:24:43.119Z,22.73
2022-10-05T05:27:19.508Z,21.63
2022-10-05T05:30:18.488Z,22.63
2022-10-05T05:33:23.074Z,22.58
2022-10-05T05:35:49.895Z,19.60
2022-10-05T05:38:53.500Z,25.00
2022-10-05T05:41:35.156Z,20.90
2022-10-05T05:44:08.910Z,18.80
2022-10-05T05:49:35.693Z,28.52
2022-10-05T05:52:17.564Z,22.85
2022-10-05T05:54:56.608Z,18.75
2022-10-05T05:57:45.796Z,19.55
2022-10-05T06:00:15.479Z,20.48
2022-10-05T06:02:53.010Z,23.50
2022-10-05T06:05:33.366Z,22.88
2022-10-05T06:08:09.240Z,21.48
2022-10-05T06:10:57.945Z,29.67
2022-10-05T06:13:29.181Z,19.50
2022-10-05T06:16:00.199Z,26.85
2022-10-05T06:18:27.706Z,22.85
2022-10-05T06:21:13.130Z,26.13
2022-10-05T06:23:49.352Z,26.13
2022-10-05T06:26:50.184Z,20.58
2022-10-05T06:29:23.344Z,26.63
2022-10-05T06:34:18.451Z,25.75
2022-10-05T06:36:56.250Z,24.35
2022-10-05T06:39:42.106Z,17.05
2022-10-05T06:42:13.774Z,14.43
2022-10-05T06:44:53.588Z,19.73
2022-10-05T06:47:26.357Z,19.00
2022-10-05T06:50:07.912Z,13.02
2022-10-05T06:52:49.821Z,17.95
2022-10-05T06:55:31.016Z,17.30
2022-10-05T06:58:45.145Z,16.17
2022-10-05T07:01:39.008Z,14.98
2022-10-05T07:04:23.943Z,13.13
2022-10-05T07:06:58.996Z,12.40
2022-10-05T07:09:31.446Z,15.63
2022-10-05T07:12:09.169Z,14.57
2022-10-05T07:15:03.919Z,13.05
2022-10-05T07:17:45.723Z,13.65
2022-10-05T07:20:12.682Z,10.82
2022-10-05T07:22:51.488Z,14.95
2022-10-05T07:25:47.235Z,11.35
2022-10-05T07:28:35.870Z,13.52
2022-10-05T07:31:07.909Z,10.98
2022-10-05T07:34:00.018Z,11.20
2022-10-05T07:37:00.285Z,10.23
2022-10-05T07:40:00.690Z,10.88
2022-10-05T07:42:52.063Z,12.38
2022-10-05T07:45:22.491Z,9.40
2022-10-05T07:47:58.356Z,11.30
2022-10-05T07:50:54.524Z,13.63
2022-10-05T07:53:37.052Z,10.55
2022-10-05T07:56:18.438Z,9.88
2022-10-05T07:58:49.206Z,12.35
2022-10-05T08:01:29.793Z,10.10
2022-10-05T08:04:09.215Z,9.73
2022-10-05T08:07:06.053Z,7.75
2022-10-05T08:09:39.093Z,6.55
2022-10-05T08:14:38.576Z,11.35
2022-10-05T08:17:21.699Z,9.48
2022-10-05T08:19:56.194Z,6.43
2022-10-05T08:22:29.927Z,5.70
2022-10-05T08:25:02.517Z,7.63
2022-10-05T08:27:42.344Z,13.98
2022-10-05T08:30:14.037Z,6.53
2022-10-05T08:33:03.181Z,10.05
2022-10-05T08:35:43.806Z,9.52
2022-10-05T08:38:19.356Z,9.20
2022-10-05T08:41:04.946Z,6.82
2022-10-05T08:43:59.428Z,6.78
2022-10-05T08:46:44.128Z,8.02
2022-10-05T08:49:35.144Z,6.45
2022-10-05T08:52:02.373Z,9.60
2022-10-05T08:54:41.767Z,8.93
2022-10-05T08:57:38.384Z,11.52
2022-10-05T09:00:14.236Z,6.03
2022-10-05T09:02:59.865Z,10.73
2022-10-05T09:06:03.596Z,5.50
2022-10-05T09:11:05.898Z,8.02
2022-10-05T09:13:57.320Z,12.27
2022-10-05T09:16:45.938Z,9.23
2022-10-05T09:19:49.772Z,8.70
2022-10-05T09:22:24.015Z,5.85
2022-10-05T09:24:55.564Z,6.75
2022-10-05T09:27:36.138Z,7.47
2022-10-05T09:30:21.843Z,7.30
2022-10-05T09:33:10.520Z,8.77
2022-10-05T09:36:09.297Z,6.75
2022-10-05T09:38:51.398Z,8.35
2022-10-05T09:41:44.839Z,6.90
2022-10-05T09:44:30.750Z,5.15
2022-10-05T09:47:13.586Z,5.00
2022-10-05T09:49:50.663Z,6.60
2022-10-05T09:52:53.583Z,8.40
2022-10-05T09:55:35.152Z,9.37
2022-10-05T09:58:05.853Z,6.07
2022-10-05T10:00:35.563Z,7.38
2022-10-05T10:03:20.617Z,5.15
2022-10-05T10:06:31.689Z,5.63
2022-10-05T10:09:41.725Z,6.10
2022-10-05T10:12:26.473Z,4.28
2022-10-05T10:15:14.362Z,8.40
2022-10-05T10:18:08.076Z,6.85
2022-10-05T10:21:01.907Z,4.97
2022-10-05T10:23:54.960Z,7.72
2022-10-05T10:26:24.697Z,5.85
2022-10-05T10:28:52.299Z,4.85
2022-10-05T10:31:56.274Z,7.95
2022-10-05T10:34:44.920Z,11.23
2022-10-05T10:37:28.598Z,7.22
2022-10-05T10:40:01.019Z,9.73
2022-10-05T10:42:49.355Z,4.68
2022-10-05T10:45:28.724Z,5.03
2022-10-05T10:48:18.967Z,4.93
2022-10-05T10:50:54.559Z,4.25
2022-10-05T10:53:52.032Z,4.47
2022-10-05T10:56:33.193Z,5.88
2022-10-05T10:59:05.976Z,5.03
2022-10-05T11:01:32.875Z,3.13
2022-10-05T11:04:20.039Z,6.63
2022-10-05T11:06:59.655Z,5.95
2022-10-05T11:10:10.779Z,3.55
2022-10-05T11:12:59.246Z,6.43
2022-10-05T11:15:39.454Z,3.75
2022-10-05T11:18:08.991Z,7.28
2022-10-05T11:20:56.120Z,6.70
2022-10-05T11:23:52.063Z,5.93
2022-10-05T11:26:42.759Z,4.28
2022-10-05T11:29:21.254Z,4.47
2022-10-05T11:32:05.860Z,4.07
2022-10-05T11:35:17.252Z,5.13
2022-10-05T11:38:11.118Z,3.28
2022-10-05T11:40:49.768Z,2.60
2022-10-05T11:43:46.525Z,4.82
2022-10-05T11:46:23.500Z,4.13
2022-10-05T11:49:27.491Z,4.45
2022-10-05T11:52:13.289Z,5.28
2022-10-05T11:55:10.563Z,3.30
2022-10-05T11:57:41.508Z,2.40
2022-10-05T12:00:18.978Z,5.43
2022-10-05T12:02:58.126Z,6.05
2022-10-05T12:05:32.482Z,3.88
2022-10-05T12:08:30.163Z,4.53
2022-10-05T12:11:26.416Z,6.60
2022-10-05T12:14:30.220Z,2.80
2022-10-05T12:17:05.706Z,4.75
2022-10-05T12:19:44.484Z,2.47
2022-10-05T12:22:21.603Z,3.25
2022-10-05T12:24:54.624Z,3.47
2022-10-05T12:29:52.551Z,3.42
2022-10-05T12:32:29.406Z,2.65
2022-10-05T12:35:36.496Z,3.95
2022-10-05T12:38:29.168Z,5.65
2022-10-05T12:41:08.248Z,7.93
2022-10-05T12:44:05.174Z,5.85
2022-10-05T12:46:50.650Z,3.25
2022-10-05T12:49:38.846Z,1.77
2022-10-05T12:52:06.496Z,2.78
2022-10-05T12:54:47.010Z,1.70
2022-10-05T12:57:19.299Z,3.70
2022-10-05T13:00:10.689Z,4.57
2022-10-05T13:02:44.652Z,4.13
2022-10-05T13:05:11.629Z,5.13
2022-10-05T13:07:50.159Z,6.55
2022-10-05T13:10:39.641Z,3.95
2022-10-05T13:13:12.599Z,4.13
2022-10-05T13:18:15.557Z,3.05
2022-10-05T13:21:26.767Z,5.85
2022-10-05T13:24:08.682Z,3.72
2022-10-05T13:26:44.660Z,3.75
2022-10-05T13:29:17.342Z,2.47
2022-10-05T13:31:53.612Z,2.00
2022-10-05T13:34:26.331Z,1.75
2022-10-05T13:36:59.363Z,3.60
2022-10-05T13:42:32.645Z,3.45
2022-10-05T13:45:00.473Z,8.43
2022-10-05T13:47:39.026Z,4.10
2022-10-05T13:50:18.203Z,2.45
2022-10-05T13:52:51.427Z,5.10
2022-10-05T13:55:38.357Z,2.97
2022-10-05T13:58:22.879Z,2.97
2022-10-05T14:01:00.839Z,8.95
2022-10-05T14:03:38.227Z,4.18
2022-10-05T14:06:13.605Z,5.47
2022-10-05T14:08:53.811Z,10.10
2022-10-05T14:11:26.934Z,3.90
2022-10-05T14:14:24.170Z,2.95
2022-10-05T14:19:47.607Z,1.35
2022-10-05T14:22:24.840Z,3.15
2022-10-05T14:24:54.482Z,4.20
2022-10-05T14:27:29.656Z,4.50
2022-10-05T14:30:00.645Z,4.53
2022-10-05T14:32:32.191Z,1.67
2022-10-05T14:35:12.887Z,2.65
2022-10-05T14:37:50.616Z,3.50
2022-10-05T14:40:28.192Z,3.13
2022-10-05T14:42:55.452Z,1.90
2022-10-05T14:45:30.069Z,3.45
2022-10-05T14:48:10.025Z,7.88
2022-10-05T14:50:51.757Z,6.25
2022-10-05T14:53:21.760Z,2.35
2022-10-05T14:56:36.604Z,3.80
2022-10-05T14:59:15.540Z,8.80
2022-10-05T15:02:01.240Z,2.47
2022-10-05T15:04:29.453Z,1.80
2022-10-05T15:07:14.874Z,1.27
2022-10-05T15:10:26.825Z,4.30
2022-10-05T15:12:59.489Z,1.92
2022-10-05T15:15:27.138Z,1.38
2022-10-05T15:18:02.485Z,9.70
2022-10-05T15:20:46.777Z,1.23
2022-10-05T15:23:40.837Z,6.25
2022-10-05T15:26:39.815Z,5.90
2022-10-05T15:29:09.700Z,2.33
2022-10-05T15:31:54.650Z,5.75
2022-10-05T15:34:44.636Z,4.47
2022-10-05T15:37:23.042Z,2.08
2022-10-05T15:39:55.330Z,2.85
2022-10-05T15:42:38.444Z,1.77
2022-10-05T15:45:30.100Z,4.88
2022-10-05T15:48:00.579Z,2.67
2022-10-05T15:50:28.449Z,4.78
2022-10-05T15:53:14.194Z,2.67
2022-10-05T15:56:20.569Z,3.53
2022-10-05T15:59:03.164Z,6.53
2022-10-05T16:01:33.125Z,2.53
2022-10-05T16:04:11.758Z,5.05
2022-10-05T16:07:14.189Z,2.67
2022-10-05T16:09:56.212Z,5.63
2022-10-05T16:12:29.872Z,2.97
2022-10-05T16:15:20.278Z,2.10
2022-10-05T16:18:08.740Z,5.95
2022-10-05T16:20:46.528Z,8.30
2022-10-05T16:23:33.548Z,3.15
2022-10-05T16:26:13.233Z,3.83
2022-10-05T16:28:40.225Z,5.72
2022-10-05T16:31:40.349Z,2.67
2022-10-05T16:34:51.369Z,14.90
2022-10-05T16:37:47.190Z,4.43
2022-10-05T16:40:35.031Z,4.97
2022-10-05T16:43:22.843Z,3.45
2022-10-05T16:46:04.627Z,3.22
2022-10-05T16:48:45.143Z,3.35
2022-10-05T16:51:18.496Z,4.07
2022-10-05T16:54:01.237Z,5.88
2022-10-05T16:56:34.425Z,13.32
2022-10-05T16:59:24.541Z,5.78
2022-10-05T17:02:18.084Z,5.90
2022-10-05T17:04:58.136Z,4.65
2022-10-05T17:07:29.493Z,2.95
2022-10-05T17:10:05.485Z,8.18
2022-10-05T17:13:03.197Z,5.18
2022-10-05T17:16:15.512Z,4.85
2022-10-05T17:19:12.933Z,11.90
2022-10-05T17:21:45.425Z,5.15
2022-10-05T17:24:12.195Z,2.85
2022-10-05T17:26:38.990Z,10.85
2022-10-05T17:29:30.737Z,2.95
2022-10-05T17:32:16.281Z,5.30
2022-10-05T17:35:01.649Z,5.43
2022-10-05T17:37:32.099Z,5.85
2022-10-05T17:40:36.184Z,5.63
2022-10-05T17:43:15.469Z,6.78
2022-10-05T17:45:42.265Z,6.28
2022-10-05T17:48:10.901Z,7.13
2022-10-05T17:50:59.061Z,7.50
2022-10-05T17:54:10.935Z,8.23
2022-10-05T17:56:46.908Z,8.05
2022-10-05T17:59:44.627Z,6.30
2022-10-05T18:02:22.049Z,5.65
2022-10-05T18:05:02.038Z,6.57
2022-10-05T18:07:28.995Z,6.47
2022-10-05T18:10:22.078Z,7.07
2022-10-05T18:13:03.931Z,8.02
2022-10-05T18:15:31.213Z,9.85
2022-10-05T18:18:20.092Z,7.28
2022-10-05T18:21:14.679Z,7.93
2022-10-05T18:23:53.109Z,6.63
2022-10-05T18:26:31.841Z,2.72
2022-10-05T18:29:14.023Z,7.20
2022-10-05T18:32:02.887Z,4.32
2022-10-05T18:34:39.368Z,10.10
2022-10-05T18:37:28.830Z,5.22
2022-10-05T18:40:08.822Z,8.30
2022-10-05T18:43:00.000Z,7.35
2022-10-05T18:45:53.664Z,6.63
2022-10-05T18:48:26.871Z,4.18
2022-10-05T18:51:02.711Z,6.22
2022-10-05T18:53:38.983Z,11.05
2022-10-05T18:56:39.005Z,6.05
2022-10-05T18:59:24.540Z,10.02
2022-10-05T19:02:01.228Z,7.50
2022-10-05T19:04:39.137Z,6.93
2022-10-05T19:07:20.780Z,9.77
2022-10-05T19:10:12.925Z,6.65
2022-10-05T19:12:56.995Z,5.55
2022-10-05T19:16:03.142Z,6.70
2022-10-05T19:19:14.446Z,4.90
2022-10-05T19:21:47.383Z,4.97
2022-10-05T19:27:08.261Z,8.63
2022-10-05T19:29:43.570Z,8.43
2022-10-05T19:32:22.777Z,6.57
2022-10-05T19:35:03.948Z,9.77
2022-10-05T19:37:33.865Z,7.72
2022-10-05T19:40:09.730Z,6.78
2022-10-05T19:43:06.244Z,9.27
2022-10-05T19:45:39.427Z,9.00
2022-10-05T19:48:28.102Z,12.60
2022-10-05T19:50:59.796Z,4.55
2022-10-05T19:53:50.021Z,7.38
2022-10-05T19:56:22.611Z,5.20
2022-10-05T19:58:50.496Z,4.78
2022-10-05T20:01:36.877Z,7.20
2022-10-05T20:04:05.160Z,9.02
2022-10-05T20:06:31.962Z,10.95
2022-10-05T20:09:00.389Z,8.25
2022-10-05T20:11:31.543Z,4.55
2022-10-05T20:14:01.392Z,6.15
2022-10-05T20:16:50.907Z,7.25
2022-10-05T20:19:46.640Z,9.77
2022-10-05T20:22:27.193Z,5.82
2022-10-05T20:25:13.458Z,4.95
2022-10-05T20:27:40.428Z,8.93
2022-10-05T20:30:09.169Z,6.35
2022-10-05T20:32:36.052Z,6.70
2022-10-05T20:35:03.006Z,6.20
2022-10-05T20:37:29.942Z,8.20
2022-10-05T20:39:56.812Z,5.85
2022-10-05T20:42:23.900Z,11.43
2022-10-05T20:44:55.834Z,8.52
2022-10-05T20:47:24.385Z,10.13
2022-10-05T20:49:53.479Z,6.32
2022-10-05T20:52:21.108Z,7.00
2022-10-05T20:54:48.300Z,5.53
2022-10-05T20:57:15.168Z,4.95
2022-10-05T20:59:42.000Z,9.68
2022-10-05T21:02:09.900Z,3.95
2022-10-05T21:04:41.600Z,4.25
2022-10-05T21:07:08.926Z,6.85
2022-10-05T21:09:38.470Z,4.13
2022-10-05T21:12:05.711Z,6.80
2022-10-05T21:14:34.502Z,9.73
2022-10-05T21:17:02.169Z,7.60
2022-10-05T21:19:29.625Z,12.05
2022-10-05T21:21:59.462Z,11.10
2022-10-05T21:24:26.412Z,5.18
2022-10-05T21:26:56.833Z,4.13
2022-10-05T21:29:23.705Z,4.63
2022-10-05T21:31:51.220Z,5.10
2022-10-05T21:34:18.095Z,3.28
2022-10-05T21:36:44.950Z,5.35
2022-10-05T21:39:11.910Z,8.48
2022-10-05T21:41:38.745Z,6.75
2022-10-05T21:44:06.783Z,3.78
2022-10-05T21:46:36.208Z,3.30
2022-10-05T21:49:03.072Z,7.68
2022-10-05T21:51:30.460Z,3.55
2022-10-05T21:54:02.025Z,4.63
2022-10-05T21:56:31.662Z,11.10
2022-10-05T21:58:59.418Z,5.15
2022-10-05T22:01:26.272Z,2.70
2022-10-05T22:03:53.129Z,6.43
2022-10-05T22:06:19.987Z,4.50
2022-10-05T22:08:46.808Z,8.77
2022-10-05T22:11:16.885Z,5.38
2022-10-05T22:13:46.757Z,5.32
2022-10-05T22:16:14.584Z,5.28
2022-10-05T22:18:41.677Z,3.85
2022-10-05T22:21:11.333Z,4.72
2022-10-05T22:23:42.635Z,3.95
2022-10-05T22:26:11.428Z,8.70
2022-10-05T22:28:39.267Z,5.63
2022-10-05T22:31:07.577Z,5.70
2022-10-05T22:33:34.421Z,5.38
2022-10-05T22:36:01.437Z,5.50
2022-10-05T22:38:30.317Z,5.60
2022-10-05T22:40:57.637Z,5.45
2022-10-05T22:43:27.067Z,5.00
2022-10-05T22:45:54.608Z,5.72
2022-10-05T22:48:21.715Z,4.65
2022-10-05T22:50:49.303Z,6.95
2022-10-05T22:53:16.323Z,11.00
2022-10-05T22:55:43.178Z,5.95
2022-10-05T22:58:10.040Z,4.57
2022-10-05T23:00:56.957Z,7.85
2022-10-05T23:03:23.778Z,9.98
2022-10-05T23:05:57.088Z,9.63
2022-10-05T23:08:24.394Z,7.18
2022-10-05T23:10:52.601Z,8.57
2022-10-05T23:13:19.480Z,5.30
2022-10-05T23:15:46.315Z,4.80
2022-10-05T23:18:14.749Z,10.20
2022-10-05T23:20:41.557Z,9.35
2022-10-05T23:23:08.445Z,4.85
2022-10-05T23:25:35.338Z,5.22
2022-10-05T23:28:02.829Z,4.43
2022-10-05T23:30:29.728Z,3.50
2022-10-05T23:32:56.625Z,7.38
2022-10-05T23:35:23.568Z,6.07
2022-10-05T23:37:50.426Z,2.72
2022-10-05T23:40:17.275Z,6.07
2022-10-05T23:42:44.118Z,4.55
2022-10-05T23:45:11.898Z,5.93
2022-10-05T23:47:40.145Z,4.28
2022-10-05T23:50:08.461Z,3.45
2022-10-05T23:52:36.230Z,5.03
2022-10-05T23:55:04.494Z,5.78
2022-10-05T23:57:31.424Z,3.55
2022-10-05T23:59:58.271Z,6.00
